createdAt,value
2023-02-02T00:01:48.828Z,6.80
2023-02-02T00:04:21.007Z,6.80
2023-02-02T00:06:49.764Z,6.90
2023-02-02T00:09:21.598Z,6.80
2023-02-02T00:11:52.012Z,6.80
2023-02-02T00:14:20.362Z,6.80
2023-02-02T00:16:49.682Z,6.80
2023-02-02T00:19:21.350Z,6.80
2023-02-02T00:21:50.080Z,6.80
2023-02-02T00:24:19.485Z,6.80
2023-02-02T00:26:53.294Z,6.80
2023-02-02T00:29:24.058Z,6.70
2023-02-02T00:31:52.786Z,6.80
2023-02-02T00:34:23.341Z,6.80
2023-02-02T00:36:52.513Z,6.80
2023-02-02T00:39:26.174Z,6.80
2023-02-02T00:41:54.710Z,6.80
2023-02-02T00:44:40.836Z,6.70
2023-02-02T00:47:08.994Z,6.70
2023-02-02T00:49:39.359Z,6.70
2023-02-02T00:52:07.622Z,6.70
2023-02-02T00:54:36.021Z,6.80
2023-02-02T00:57:04.431Z,6.70
2023-02-02T00:59:32.845Z,6.80
2023-02-02T01:02:02.126Z,6.80
2023-02-02T01:04:30.428Z,6.80
2023-02-02T01:07:00.206Z,6.80
2023-02-02T01:09:28.591Z,6.70
2023-02-02T01:11:56.968Z,6.70
2023-02-02T01:14:26.969Z,6.70
2023-02-02T01:16:57.352Z,6.80
2023-02-02T01:19:27.532Z,6.80
2023-02-02T01:21:55.861Z,6.90
2023-02-02T01:24:25.469Z,6.90
2023-02-02T01:26:53.828Z,6.90
2023-02-02T01:29:22.235Z,6.90
2023-02-02T01:31:50.582Z,6.90
2023-02-02T01:34:18.999Z,6.90
2023-02-02T01:36:47.199Z,6.90
2023-02-02T01:39:15.515Z,6.90
2023-02-02T01:41:45.037Z,6.90
2023-02-02T01:45:14.637Z,6.90
2023-02-02T01:47:46.601Z,6.90
2023-02-02T01:50:18.096Z,6.90
2023-02-02T01:52:50.922Z,6.90
2023-02-02T01:55:24.049Z,6.90
2023-02-02T01:57:59.696Z,6.80
2023-02-02T02:00:28.103Z,6.90
2023-02-02T02:03:01.280Z,6.90
2023-02-02T02:05:33.066Z,6.90
2023-02-02T02:08:11.229Z,6.80
2023-02-02T02:10:39.585Z,6.80
2023-02-02T02:13:09.374Z,6.80
2023-02-02T02:16:01.909Z,6.70
2023-02-02T02:18:44.707Z,6.70
2023-02-02T02:21:59.469Z,6.70
2023-02-02T02:25:26.339Z,6.70
2023-02-02T02:28:43.999Z,6.80
2023-02-02T02:32:07.045Z,6.80
2023-02-02T02:34:49.622Z,6.80
2023-02-02T02:37:31.403Z,6.70
2023-02-02T02:40:05.646Z,6.80
2023-02-02T02:42:40.342Z,6.80
2023-02-02T02:45:12.688Z,6.80
2023-02-02T02:47:43.477Z,6.80
2023-02-02T02:50:13.350Z,6.90
2023-02-02T02:52:42.503Z,6.90
2023-02-02T02:55:13.209Z,6.90
2023-02-02T02:58:06.913Z,6.80
2023-02-02T03:00:49.989Z,6.80
2023-02-02T03:03:32.061Z,6.80
2023-02-02T03:06:11.835Z,6.70
2023-02-02T03:08:45.158Z,6.80
2023-02-02T03:11:15.232Z,6.80
2023-02-02T03:13:44.617Z,6.80
2023-02-02T03:16:12.974Z,6.80
2023-02-02T03:18:42.915Z,6.80
2023-02-02T03:21:12.629Z,6.70
2023-02-02T03:23:41.634Z,6.80
2023-02-02T03:26:10.041Z,6.80
2023-02-02T03:28:38.461Z,6.70
2023-02-02T03:31:07.512Z,6.80
2023-02-02T03:33:38.090Z,6.70
2023-02-02T03:36:09.102Z,6.70
2023-02-02T03:38:37.360Z,6.70
2023-02-02T03:41:06.474Z,6.70
2023-02-02T03:43:34.629Z,6.70
2023-02-02T03:46:05.325Z,6.70
2023-02-02T03:48:36.656Z,6.70
2023-02-02T03:51:09.526Z,6.70
2023-02-02T03:53:37.739Z,6.80
2023-02-02T03:56:06.896Z,6.80
2023-02-02T03:58:35.275Z,6.90
2023-02-02T04:01:05.702Z,6.90
2023-02-02T04:03:34.040Z,6.90
2023-02-02T04:06:02.732Z,6.90
2023-02-02T04:08:32.413Z,6.90
2023-02-02T04:11:01.072Z,6.90
2023-02-02T04:13:29.281Z,6.90
2023-02-02T04:16:01.152Z,6.90
2023-02-02T04:18:30.392Z,6.90
2023-02-02T04:21:00.101Z,6.90
2023-02-02T04:23:31.254Z,6.90
2023-02-02T04:26:00.301Z,7.00
2023-02-02T04:28:29.479Z,6.90
2023-02-02T04:30:58.655Z,7.00
2023-02-02T04:33:28.592Z,6.90
2023-02-02T04:35:57.142Z,6.90
2023-02-02T04:38:25.287Z,6.90
2023-02-02T04:40:54.914Z,7.00
2023-02-02T04:43:23.276Z,6.90
2023-02-02T04:45:57.143Z,7.00
2023-02-02T04:48:25.465Z,6.90
2023-02-02T04:51:00.992Z,6.90
2023-02-02T04:53:30.088Z,6.90
2023-02-02T04:56:05.634Z,6.90
2023-02-02T04:58:33.780Z,6.90
2023-02-02T05:01:02.016Z,7.00
2023-02-02T05:03:30.167Z,7.00
2023-02-02T05:06:03.596Z,6.90
2023-02-02T05:08:34.745Z,6.90
2023-02-02T05:11:08.550Z,6.90
2023-02-02T05:13:36.998Z,6.90
2023-02-02T05:16:06.095Z,7.00
2023-02-02T05:18:34.782Z,7.00
2023-02-02T05:21:04.320Z,7.00
2023-02-02T05:23:33.176Z,7.00
2023-02-02T05:26:02.809Z,7.00
2023-02-02T05:28:32.138Z,7.00
2023-02-02T05:31:00.326Z,7.00
2023-02-02T05:33:28.469Z,7.00
2023-02-02T05:35:56.794Z,7.00
2023-02-02T05:38:24.951Z,7.00
2023-02-02T05:40:53.147Z,7.00
2023-02-02T05:43:26.173Z,7.00
2023-02-02T05:45:54.529Z,7.00
2023-02-02T05:48:23.131Z,7.00
2023-02-02T05:51:01.805Z,7.00
2023-02-02T05:53:31.829Z,7.00
2023-02-02T05:56:00.809Z,7.00
2023-02-02T05:58:30.419Z,7.00
2023-02-02T06:00:58.563Z,7.00
2023-02-02T06:03:37.479Z,7.00
2023-02-02T06:06:07.138Z,7.00
2023-02-02T06:08:35.818Z,7.00
2023-02-02T06:11:11.041Z,7.00
2023-02-02T06:13:41.210Z,7.00
2023-02-02T06:16:10.252Z,6.90
2023-02-02T06:18:38.854Z,6.90
2023-02-02T06:21:08.159Z,6.90
2023-02-02T06:23:36.695Z,6.90
2023-02-02T06:26:05.526Z,7.00
2023-02-02T06:28:34.038Z,7.00
2023-02-02T06:31:07.284Z,7.00
2023-02-02T06:33:35.837Z,7.00
2023-02-02T06:36:07.320Z,7.00
2023-02-02T06:38:35.503Z,7.00
2023-02-02T06:41:04.342Z,7.00
2023-02-02T06:43:32.733Z,7.00
2023-02-02T06:46:04.412Z,7.00
2023-02-02T06:48:36.973Z,7.00
2023-02-02T06:54:57.589Z,7.00
2023-02-02T06:57:28.490Z,7.10
2023-02-02T06:59:57.011Z,7.00
2023-02-02T07:02:25.257Z,7.00
2023-02-02T07:04:57.546Z,7.00
2023-02-02T07:07:25.935Z,7.00
2023-02-02T07:09:57.930Z,7.00
2023-02-02T07:12:27.772Z,7.00
2023-02-02T07:14:56.166Z,7.00
2023-02-02T07:17:24.488Z,7.00
2023-02-02T07:19:52.639Z,7.00
2023-02-02T07:22:22.240Z,7.00
2023-02-02T07:24:50.427Z,7.00
2023-02-02T07:27:18.811Z,7.00
2023-02-02T07:29:47.048Z,7.10
2023-02-02T07:32:15.288Z,7.10
2023-02-02T07:34:44.191Z,7.00
2023-02-02T07:37:12.465Z,7.10
2023-02-02T07:39:43.255Z,7.00
2023-02-02T07:42:12.867Z,7.10
2023-02-02T07:44:42.691Z,7.10
2023-02-02T07:47:11.220Z,7.10
2023-02-02T07:49:39.425Z,7.10
2023-02-02T07:52:07.683Z,7.10
2023-02-02T07:54:35.882Z,7.10
2023-02-02T07:57:05.775Z,7.20
2023-02-02T07:59:34.101Z,7.10
2023-02-02T08:02:02.449Z,7.10
2023-02-02T08:04:33.596Z,7.10
2023-02-02T08:07:02.012Z,7.10
2023-02-02T08:09:30.380Z,7.20
2023-02-02T08:12:01.664Z,7.10
2023-02-02T08:14:32.521Z,7.20
2023-02-02T08:17:00.881Z,7.20
2023-02-02T08:19:29.220Z,7.20
2023-02-02T08:21:57.451Z,7.20
2023-02-02T08:24:25.691Z,7.10
2023-02-02T08:26:53.956Z,7.10
2023-02-02T08:29:22.325Z,7.20
2023-02-02T08:31:52.392Z,7.20
2023-02-02T08:34:20.837Z,7.20
2023-02-02T08:36:49.073Z,7.10
2023-02-02T08:39:17.350Z,7.10
2023-02-02T08:41:46.321Z,7.20
2023-02-02T08:44:16.923Z,7.30
2023-02-02T08:46:45.477Z,7.20
2023-02-02T08:49:15.450Z,7.30
2023-02-02T08:51:45.826Z,7.30
2023-02-02T08:54:14.644Z,7.30
2023-02-02T08:56:42.871Z,7.30
2023-02-02T08:59:11.301Z,7.30
2023-02-02T09:01:39.664Z,7.40
2023-02-02T09:04:11.694Z,7.40
2023-02-02T09:06:42.919Z,7.40
2023-02-02T09:09:14.301Z,7.40
2023-02-02T09:11:43.401Z,7.50
2023-02-02T09:14:15.741Z,7.50
2023-02-02T09:16:44.163Z,7.50
2023-02-02T09:19:12.837Z,7.40
2023-02-02T09:21:43.658Z,7.50
2023-02-02T09:24:14.770Z,7.50
2023-02-02T09:26:44.845Z,7.50
2023-02-02T09:29:16.093Z,7.50
2023-02-02T09:31:47.064Z,7.50
2023-02-02T09:34:17.192Z,7.50
2023-02-02T09:36:47.417Z,7.50
2023-02-02T09:39:16.690Z,7.40
2023-02-02T09:42:22.775Z,7.50
2023-02-02T09:45:14.770Z,7.50
2023-02-02T09:47:55.836Z,7.50
2023-02-02T09:50:44.707Z,7.50
2023-02-02T09:53:24.350Z,7.50
2023-02-02T09:55:55.085Z,7.50
2023-02-02T09:58:27.509Z,7.50
2023-02-02T10:01:04.557Z,7.60
2023-02-02T10:03:39.199Z,7.60
2023-02-02T10:06:25.223Z,7.70
2023-02-02T10:09:06.358Z,7.70
2023-02-02T10:11:42.512Z,7.70
2023-02-02T10:14:19.718Z,7.70
2023-02-02T10:16:50.935Z,7.70
2023-02-02T10:19:20.441Z,7.70
2023-02-02T10:21:58.449Z,7.60
2023-02-02T10:24:31.074Z,7.70
2023-02-02T10:27:06.274Z,7.60
2023-02-02T10:29:48.814Z,7.70
2023-02-02T10:32:25.491Z,7.70
2023-02-02T10:35:18.346Z,7.70
2023-02-02T10:37:54.143Z,7.80
2023-02-02T10:40:41.546Z,7.80
2023-02-02T10:43:46.841Z,7.80
2023-02-02T10:46:21.485Z,7.80
2023-02-02T10:48:54.392Z,7.90
2023-02-02T10:51:28.884Z,7.90
2023-02-02T10:54:00.587Z,7.90
2023-02-02T10:56:37.676Z,7.90
2023-02-02T10:59:11.021Z,7.90
2023-02-02T11:01:39.249Z,7.90
2023-02-02T11:04:25.424Z,8.00
2023-02-02T11:06:53.983Z,8.00
2023-02-02T11:09:25.486Z,7.90
2023-02-02T11:12:00.756Z,7.90
2023-02-02T11:14:45.311Z,7.90
2023-02-02T11:17:21.909Z,7.80
2023-02-02T11:19:51.364Z,7.80
2023-02-02T11:22:30.299Z,7.80
2023-02-02T11:25:01.649Z,7.80
2023-02-02T11:27:35.256Z,7.70
2023-02-02T11:30:23.040Z,7.70
2023-02-02T11:32:51.479Z,7.70
2023-02-02T11:35:23.212Z,7.80
2023-02-02T11:38:11.258Z,7.70
2023-02-02T11:40:42.341Z,7.70
2023-02-02T11:43:21.564Z,7.80
2023-02-02T11:45:56.154Z,7.80
2023-02-02T11:48:29.757Z,7.70
2023-02-02T11:51:00.925Z,7.70
2023-02-02T11:53:33.056Z,7.60
2023-02-02T11:56:05.487Z,7.60
2023-02-02T11:58:46.528Z,7.60
2023-02-02T12:01:27.878Z,7.70
2023-02-02T12:03:58.373Z,7.60
2023-02-02T12:06:28.939Z,7.60
2023-02-02T12:09:03.865Z,7.60
2023-02-02T12:11:49.383Z,7.50
2023-02-02T12:14:33.417Z,7.50
2023-02-02T12:17:29.009Z,7.50
2023-02-02T12:20:28.117Z,7.50
2023-02-02T12:23:48.545Z,7.40
2023-02-02T12:26:29.784Z,7.40
2023-02-02T12:29:35.658Z,7.40
2023-02-02T12:32:41.734Z,7.50
2023-02-02T12:35:33.626Z,7.50
2023-02-02T12:38:19.932Z,7.40
2023-02-02T12:41:22.739Z,7.30
2023-02-02T12:47:06.391Z,7.30
2023-02-02T12:50:16.004Z,7.30
2023-02-02T12:53:18.886Z,7.30
2023-02-02T12:55:55.786Z,7.30
2023-02-02T12:58:34.516Z,7.30
2023-02-02T13:01:27.714Z,7.20
2023-02-02T13:04:33.915Z,7.20
2023-02-02T13:07:26.180Z,7.20
2023-02-02T13:10:26.057Z,7.20
2023-02-02T13:13:11.535Z,7.20
2023-02-02T13:15:44.663Z,7.20
2023-02-02T13:18:19.274Z,7.20
2023-02-02T13:20:54.657Z,7.20
2023-02-02T13:23:28.061Z,7.20
2023-02-02T13:26:03.488Z,7.20
2023-02-02T13:28:42.032Z,7.30
2023-02-02T13:31:19.956Z,7.30
2023-02-02T13:33:56.075Z,7.20
2023-02-02T13:36:30.778Z,7.30
2023-02-02T13:39:03.539Z,7.30
2023-02-02T13:41:32.477Z,7.30
2023-02-02T13:44:07.177Z,7.30
2023-02-02T13:46:44.367Z,7.30
2023-02-02T13:49:18.712Z,7.40
2023-02-02T13:51:56.664Z,7.40
2023-02-02T13:54:56.275Z,7.40
2023-02-02T13:57:56.874Z,7.50
2023-02-02T14:00:32.103Z,7.40
2023-02-02T14:03:04.256Z,7.40
2023-02-02T14:05:35.748Z,7.50
2023-02-02T14:08:09.415Z,7.50
2023-02-02T14:10:41.002Z,7.50
2023-02-02T14:13:35.451Z,7.50
2023-02-02T14:16:06.502Z,7.40
2023-02-02T14:18:56.117Z,7.50
2023-02-02T14:22:03.636Z,7.60
2023-02-02T14:24:57.281Z,7.60
2023-02-02T14:27:57.792Z,7.60
2023-02-02T14:30:32.643Z,7.60
2023-02-02T14:33:42.005Z,7.60
2023-02-02T14:36:16.747Z,7.60
2023-02-02T14:39:18.981Z,7.60
2023-02-02T14:42:46.005Z,7.60
2023-02-02T14:45:28.938Z,7.60
2023-02-02T14:48:00.670Z,7.50
2023-02-02T14:50:41.721Z,7.50
2023-02-02T14:53:24.200Z,7.50
2023-02-02T14:56:01.828Z,7.50
2023-02-02T14:58:37.036Z,7.50
2023-02-02T15:01:14.604Z,7.60
2023-02-02T15:04:00.837Z,7.60
2023-02-02T15:06:33.896Z,7.60
2023-02-02T15:09:29.461Z,7.60
2023-02-02T15:12:26.348Z,7.60
2023-02-02T15:15:08.097Z,7.60
2023-02-02T15:18:08.635Z,7.60
2023-02-02T15:20:44.619Z,7.70
2023-02-02T15:23:26.460Z,7.70
2023-02-02T15:26:09.396Z,7.70
2023-02-02T15:28:44.293Z,7.70
2023-02-02T15:31:20.945Z,7.70
2023-02-02T15:33:51.933Z,7.70
2023-02-02T15:36:25.052Z,7.70
2023-02-02T15:38:56.581Z,7.70
2023-02-02T15:41:28.716Z,7.70
2023-02-02T15:43:57.261Z,7.70
2023-02-02T15:46:32.319Z,7.70
2023-02-02T15:49:35.107Z,7.70
2023-02-02T15:52:14.693Z,7.70
2023-02-02T15:54:53.655Z,7.80
2023-02-02T15:57:31.006Z,7.80
2023-02-02T15:59:59.936Z,7.80
2023-02-02T16:02:39.925Z,7.90
2023-02-02T16:05:28.948Z,7.90
2023-02-02T16:08:05.756Z,7.90
2023-02-02T16:10:35.636Z,7.90
2023-02-02T16:13:04.628Z,7.80
2023-02-02T16:15:33.427Z,7.90
2023-02-02T16:18:05.853Z,7.80
2023-02-02T16:20:36.434Z,7.80
2023-02-02T16:23:07.428Z,7.80
2023-02-02T16:25:48.363Z,7.80
2023-02-02T16:28:19.893Z,7.80
2023-02-02T16:30:48.283Z,7.80
2023-02-02T16:33:36.426Z,7.70
2023-02-02T16:36:24.376Z,7.80
2023-02-02T16:39:07.368Z,7.70
2023-02-02T16:41:38.224Z,7.70
2023-02-02T16:44:36.866Z,7.80
2023-02-02T16:47:07.675Z,7.80
2023-02-02T16:49:37.699Z,7.70
2023-02-02T16:52:13.822Z,7.80
2023-02-02T16:54:50.915Z,7.70
2023-02-02T16:57:23.370Z,7.70
2023-02-02T16:59:54.625Z,7.70
2023-02-02T17:02:29.564Z,7.80
2023-02-02T17:05:04.868Z,7.80
2023-02-02T17:07:36.185Z,7.70
2023-02-02T17:10:25.095Z,7.80
2023-02-02T17:12:53.572Z,7.80
2023-02-02T17:15:35.806Z,7.80
2023-02-02T17:18:06.060Z,7.80
2023-02-02T17:20:35.803Z,7.80
2023-02-02T17:23:06.977Z,7.80
2023-02-02T17:25:39.125Z,7.80
2023-02-02T17:28:12.309Z,7.80
2023-02-02T17:30:42.300Z,7.80
2023-02-02T17:33:15.027Z,7.80
2023-02-02T17:35:54.390Z,7.80
2023-02-02T17:38:25.549Z,7.70
2023-02-02T17:40:55.425Z,7.70
2023-02-02T17:43:23.683Z,7.70
2023-02-02T17:45:53.642Z,7.70
2023-02-02T17:48:21.889Z,7.70
2023-02-02T17:50:51.743Z,7.70
2023-02-02T17:53:22.841Z,7.60
2023-02-02T17:55:52.054Z,7.60
2023-02-02T17:58:20.302Z,7.60
2023-02-02T18:00:54.139Z,7.50
2023-02-02T18:03:25.988Z,7.50
2023-02-02T18:05:57.519Z,7.50
2023-02-02T18:08:25.797Z,7.50
2023-02-02T18:10:53.987Z,7.40
2023-02-02T18:13:24.347Z,7.40
2023-02-02T18:15:55.148Z,7.40
2023-02-02T18:18:24.196Z,7.30
2023-02-02T18:20:52.533Z,7.40
2023-02-02T18:23:24.522Z,7.30
2023-02-02T18:25:53.758Z,7.30
2023-02-02T18:28:22.157Z,7.40
2023-02-02T18:30:50.451Z,7.40
2023-02-02T18:33:19.962Z,7.40
2023-02-02T18:35:49.387Z,7.30
2023-02-02T18:38:17.984Z,7.40
2023-02-02T18:40:55.789Z,7.30
2023-02-02T18:43:23.969Z,7.30
2023-02-02T18:46:00.475Z,7.40
2023-02-02T18:48:29.166Z,7.30
2023-02-02T18:50:57.546Z,7.30
2023-02-02T18:53:25.838Z,7.40
2023-02-02T18:55:55.410Z,7.30
2023-02-02T18:58:26.128Z,7.30
2023-02-02T19:00:54.525Z,7.30
2023-02-02T19:03:22.878Z,7.30
2023-02-02T19:06:08.535Z,7.30
2023-02-02T19:08:36.776Z,7.30
2023-02-02T19:11:26.724Z,7.30
2023-02-02T19:13:55.332Z,7.30
2023-02-02T19:16:28.780Z,7.20
2023-02-02T19:18:58.614Z,7.30
2023-02-02T19:21:30.428Z,7.30
2023-02-02T19:24:00.573Z,7.30
2023-02-02T19:26:31.519Z,7.30
2023-02-02T19:29:08.722Z,7.30
2023-02-02T19:31:37.683Z,7.30
2023-02-02T19:34:13.160Z,7.30
2023-02-02T19:36:46.643Z,7.30
2023-02-02T19:39:19.265Z,7.30
2023-02-02T19:41:49.343Z,7.20
2023-02-02T19:44:20.703Z,7.30
2023-02-02T19:46:51.074Z,7.20
2023-02-02T19:49:28.700Z,7.20
2023-02-02T19:51:58.784Z,7.20
2023-02-02T19:54:35.753Z,7.20
2023-02-02T19:57:17.257Z,7.20
2023-02-02T19:59:49.073Z,7.20
2023-02-02T20:02:50.128Z,7.20
2023-02-02T20:05:23.348Z,7.20
2023-02-02T20:07:59.332Z,7.20
2023-02-02T20:10:30.234Z,7.20
2023-02-02T20:12:59.815Z,7.20
2023-02-02T20:15:35.345Z,7.30
2023-02-02T20:22:33.481Z,7.30
2023-02-02T20:25:09.016Z,7.20
2023-02-02T20:27:39.206Z,7.30
2023-02-02T20:30:23.345Z,7.30
2023-02-02T20:32:58.038Z,7.30
2023-02-02T20:35:36.964Z,7.30
2023-02-02T20:38:25.459Z,7.40
2023-02-02T20:40:53.900Z,7.40
2023-02-02T20:43:22.771Z,7.40
2023-02-02T20:45:52.810Z,7.30
2023-02-02T20:48:21.091Z,7.30
2023-02-02T20:50:49.530Z,7.30
2023-02-02T20:53:17.720Z,7.30
2023-02-02T20:55:46.161Z,7.20
2023-02-02T20:58:14.498Z,7.20
2023-02-02T21:00:42.848Z,7.20
2023-02-02T21:03:13.208Z,7.20
2023-02-02T21:05:41.403Z,7.20
2023-02-02T21:08:09.737Z,7.30
2023-02-02T21:10:37.974Z,7.30
2023-02-02T21:13:09.385Z,7.30
2023-02-02T21:15:37.657Z,7.30
2023-02-02T21:18:06.157Z,7.30
2023-02-02T21:20:35.678Z,7.30
2023-02-02T21:23:03.944Z,7.30
2023-02-02T21:25:32.999Z,7.30
2023-02-02T21:28:03.945Z,7.30
2023-02-02T21:30:32.472Z,7.30
2023-02-02T21:33:00.965Z,7.30
2023-02-02T21:35:29.097Z,7.30
2023-02-02T21:38:02.573Z,7.30
2023-02-02T21:40:34.442Z,7.30
2023-02-02T21:43:15.387Z,7.30
2023-02-02T21:45:48.876Z,7.30
2023-02-02T21:48:30.974Z,7.30
2023-02-02T21:50:59.530Z,7.30
2023-02-02T21:53:29.318Z,7.30
2023-02-02T21:56:00.303Z,7.20
2023-02-02T21:58:38.236Z,7.20
2023-02-02T22:01:20.803Z,7.20
2023-02-02T22:03:49.914Z,7.20
2023-02-02T22:06:30.920Z,7.20
2023-02-02T22:09:15.615Z,7.20
2023-02-02T22:11:50.897Z,7.20
2023-02-02T22:14:27.210Z,7.20
2023-02-02T22:16:59.604Z,7.20
2023-02-02T22:19:32.864Z,7.10
2023-02-02T22:22:17.340Z,7.10
2023-02-02T22:24:58.183Z,7.10
2023-02-02T22:27:37.734Z,7.10
2023-02-02T22:30:22.079Z,7.10
2023-02-02T22:32:50.303Z,7.10
2023-02-02T22:35:18.597Z,7.10
2023-02-02T22:37:47.233Z,7.10
2023-02-02T22:40:17.310Z,7.20
2023-02-02T22:42:45.802Z,7.10
2023-02-02T22:45:14.006Z,7.10
2023-02-02T22:47:42.386Z,7.10
2023-02-02T22:50:11.303Z,7.10
2023-02-02T22:52:39.439Z,7.10
2023-02-02T22:55:08.522Z,7.10
2023-02-02T22:57:38.235Z,7.10
2023-02-02T23:00:14.465Z,7.10
2023-02-02T23:02:44.162Z,7.10
2023-02-02T23:05:15.232Z,7.10
2023-02-02T23:07:44.092Z,7.20
2023-02-02T23:10:13.243Z,7.20
2023-02-02T23:12:44.254Z,7.20
2023-02-02T23:15:13.408Z,7.20
2023-02-02T23:17:42.142Z,7.20
2023-02-02T23:20:14.415Z,7.20
2023-02-02T23:22:42.551Z,7.20
2023-02-02T23:25:12.216Z,7.30
2023-02-02T23:27:41.860Z,7.20
2023-02-02T23:30:13.422Z,7.20
2023-02-02T23:32:42.310Z,7.20
2023-02-02T23:35:11.282Z,7.30
2023-02-02T23:37:40.223Z,7.30
2023-02-02T23:40:10.331Z,7.30
2023-02-02T23:42:38.518Z,7.30
2023-02-02T23:45:09.479Z,7.30
2023-02-02T23:47:38.015Z,7.30
2023-02-02T23:50:09.275Z,7.30
2023-02-02T23:52:38.795Z,7.30
2023-02-02T23:55:09.198Z,7.30
2023-02-02T23:57:37.821Z,7.30
